sensor_id;sensor_type;location;lat;lon;timestamp;P1;durP1;ratioP1;P2;durP2;ratioP2
72275;SDS011;61204;49.980;8.358;2022-10-16T00:01:25;2.50;;;1.70;;
72275;SDS011;61204;49.980;8.358;2022-10-16T00:03:55;2.75;;;1.70;;
72275;SDS011;61204;49.980;8.358;2022-10-16T00:06:24;4.18;;;1.95;;
72275;SDS011;61204;49.980;8.358;2022-10-16T00:08:51;1.83;;;1.48;;
72275;SDS011;61204;49.980;8.358;2022-10-16T00:11:21;3.50;;;1.70;;
72275;SDS011;61204;49.980;8.358;2022-10-16T00:13:59;6.57;;;1.55;;
72275;SDS011;61204;49.980;8.358;2022-10-16T00:16:29;2.60;;;1.65;;
72275;SDS011;61204;49.980;8.358;2022-10-16T00:18:56;2.40;;;1.40;;
72275;SDS011;61204;49.980;8.358;2022-10-16T00:21:23;3.15;;;1.70;;
72275;SDS011;61204;49.980;8.358;2022-10-16T00:23:54;3.00;;;2.03;;
72275;SDS011;61204;49.980;8.358;2022-10-16T00:26:29;2.92;;;1.70;;
72275;SDS011;61204;49.980;8.358;2022-10-16T00:28:58;3.63;;;1.85;;
72275;SDS011;61204;49.980;8.358;2022-10-16T00:31:25;3.00;;;1.60;;
72275;SDS011;61204;49.980;8.358;2022-10-16T00:33:52;2.95;;;2.00;;
72275;SDS011;61204;49.980;8.358;2022-10-16T00:36:19;3.55;;;2.35;;
72275;SDS011;61204;49.980;8.358;2022-10-16T00:38:50;2.35;;;1.80;;
72275;SDS011;61204;49.980;8.358;2022-10-16T00:41:23;7.60;;;2.10;;
72275;SDS011;61204;49.980;8.358;2022-10-16T00:49:08;5.97;;;2.78;;
72275;SDS011;61204;49.980;8.358;2022-10-16T00:56:56;4.53;;;2.90;;
72275;SDS011;61204;49.980;8.358;2022-10-16T00:59:37;2.85;;;2.55;;
72275;SDS011;61204;49.980;8.358;2022-10-16T01:02:08;3.58;;;2.97;;
72275;SDS011;61204;49.980;8.358;2022-10-16T01:04:41;5.40;;;3.08;;
72275;SDS011;61204;49.980;8.358;2022-10-16T01:13:11;3.08;;;2.63;;
72275;SDS011;61204;49.980;8.358;2022-10-16T01:15:54;3.17;;;2.45;;
72275;SDS011;61204;49.980;8.358;2022-10-16T01:21:29;4.47;;;2.80;;
72275;SDS011;61204;49.980;8.358;2022-10-16T01:32:41;4.55;;;2.80;;
72275;SDS011;61204;49.980;8.358;2022-10-16T01:35:48;5.22;;;3.30;;
72275;SDS011;61204;49.980;8.358;2022-10-16T01:38:25;6.22;;;3.28;;
72275;SDS011;61204;49.980;8.358;2022-10-16T01:41:08;3.85;;;3.38;;
72275;SDS011;61204;49.980;8.358;2022-10-16T01:43:48;5.10;;;3.10;;
72275;SDS011;61204;49.980;8.358;2022-10-16T01:46:26;4.95;;;3.10;;
72275;SDS011;61204;49.980;8.358;2022-10-16T01:48:56;5.43;;;3.28;;
72275;SDS011;61204;49.980;8.358;2022-10-16T01:51:26;4.38;;;3.13;;
72275;SDS011;61204;49.980;8.358;2022-10-16T01:53:55;5.95;;;3.05;;
72275;SDS011;61204;49.980;8.358;2022-10-16T01:56:26;4.93;;;2.88;;
72275;SDS011;61204;49.980;8.358;2022-10-16T01:59:14;7.82;;;2.90;;
72275;SDS011;61204;49.980;8.358;2022-10-16T02:01:54;4.07;;;3.42;;
72275;SDS011;61204;49.980;8.358;2022-10-16T02:04:32;7.45;;;3.42;;
72275;SDS011;61204;49.980;8.358;2022-10-16T02:07:04;4.85;;;3.03;;
72275;SDS011;61204;49.980;8.358;2022-10-16T02:09:35;5.93;;;3.20;;
72275;SDS011;61204;49.980;8.358;2022-10-16T02:14:56;6.18;;;2.60;;
72275;SDS011;61204;49.980;8.358;2022-10-16T02:17:22;6.75;;;3.08;;
72275;SDS011;61204;49.980;8.358;2022-10-16T02:19:48;5.60;;;3.03;;
72275;SDS011;61204;49.980;8.358;2022-10-16T02:22:27;5.28;;;2.80;;
72275;SDS011;61204;49.980;8.358;2022-10-16T02:25:03;3.83;;;3.10;;
72275;SDS011;61204;49.980;8.358;2022-10-16T02:33:21;6.70;;;3.25;;
72275;SDS011;61204;49.980;8.358;2022-10-16T02:35:51;5.53;;;3.00;;
72275;SDS011;61204;49.980;8.358;2022-10-16T02:38:20;4.65;;;3.30;;
72275;SDS011;61204;49.980;8.358;2022-10-16T02:40:49;5.35;;;3.58;;
72275;SDS011;61204;49.980;8.358;2022-10-16T02:43:15;6.18;;;3.25;;
72275;SDS011;61204;49.980;8.358;2022-10-16T02:45:42;4.43;;;3.30;;
72275;SDS011;61204;49.980;8.358;2022-10-16T02:48:07;5.32;;;4.00;;
72275;SDS011;61204;49.980;8.358;2022-10-16T02:50:34;4.35;;;3.10;;
72275;SDS011;61204;49.980;8.358;2022-10-16T02:52:59;4.90;;;2.65;;
72275;SDS011;61204;49.980;8.358;2022-10-16T02:55:25;4.15;;;2.97;;
72275;SDS011;61204;49.980;8.358;2022-10-16T02:57:52;5.07;;;3.22;;
72275;SDS011;61204;49.980;8.358;2022-10-16T03:00:19;4.03;;;3.00;;
72275;SDS011;61204;49.980;8.358;2022-10-16T03:02:45;6.60;;;2.85;;
72275;SDS011;61204;49.980;8.358;2022-10-16T03:05:12;3.53;;;2.83;;
72275;SDS011;61204;49.980;8.358;2022-10-16T03:07:39;5.20;;;3.47;;
72275;SDS011;61204;49.980;8.358;2022-10-16T03:10:05;4.80;;;3.15;;
72275;SDS011;61204;49.980;8.358;2022-10-16T03:12:31;6.78;;;3.33;;
72275;SDS011;61204;49.980;8.358;2022-10-16T03:14:57;6.28;;;3.13;;
72275;SDS011;61204;49.980;8.358;2022-10-16T03:17:23;5.13;;;2.90;;
72275;SDS011;61204;49.980;8.358;2022-10-16T03:19:50;7.70;;;3.97;;
72275;SDS011;61204;49.980;8.358;2022-10-16T03:22:16;6.30;;;3.25;;
72275;SDS011;61204;49.980;8.358;2022-10-16T03:24:42;6.45;;;3.72;;
72275;SDS011;61204;49.980;8.358;2022-10-16T03:27:07;8.77;;;3.53;;
72275;SDS011;61204;49.980;8.358;2022-10-16T03:29:33;5.00;;;2.88;;
72275;SDS011;61204;49.980;8.358;2022-10-16T03:31:59;3.08;;;2.20;;
72275;SDS011;61204;49.980;8.358;2022-10-16T03:34:25;8.38;;;2.85;;
72275;SDS011;61204;49.980;8.358;2022-10-16T03:36:52;3.90;;;2.33;;
72275;SDS011;61204;49.980;8.358;2022-10-16T03:39:19;4.25;;;2.10;;
72275;SDS011;61204;49.980;8.358;2022-10-16T03:41:45;9.25;;;2.35;;
72275;SDS011;61204;49.980;8.358;2022-10-16T03:44:11;4.30;;;1.83;;
72275;SDS011;61204;49.980;8.358;2022-10-16T03:46:38;4.00;;;1.92;;
72275;SDS011;61204;49.980;8.358;2022-10-16T03:49:04;3.60;;;1.92;;
72275;SDS011;61204;49.980;8.358;2022-10-16T03:51:29;2.30;;;2.10;;
72275;SDS011;61204;49.980;8.358;2022-10-16T03:53:55;3.83;;;2.03;;
72275;SDS011;61204;49.980;8.358;2022-10-16T03:56:20;3.35;;;2.13;;
72275;SDS011;61204;49.980;8.358;2022-10-16T03:58:46;2.30;;;2.10;;
72275;SDS011;61204;49.980;8.358;2022-10-16T04:01:12;5.43;;;2.25;;
72275;SDS011;61204;49.980;8.358;2022-10-16T04:03:37;3.08;;;2.03;;
72275;SDS011;61204;49.980;8.358;2022-10-16T04:06:03;4.20;;;2.00;;
72275;SDS011;61204;49.980;8.358;2022-10-16T04:08:29;3.58;;;2.20;;
72275;SDS011;61204;49.980;8.358;2022-10-16T04:10:54;2.72;;;1.75;;
72275;SDS011;61204;49.980;8.358;2022-10-16T04:13:20;1.92;;;1.63;;
72275;SDS011;61204;49.980;8.358;2022-10-16T04:15:45;2.78;;;2.03;;
72275;SDS011;61204;49.980;8.358;2022-10-16T04:18:11;3.22;;;1.83;;
72275;SDS011;61204;49.980;8.358;2022-10-16T04:20:37;2.78;;;1.88;;
72275;SDS011;61204;49.980;8.358;2022-10-16T04:23:03;2.33;;;1.45;;
72275;SDS011;61204;49.980;8.358;2022-10-16T04:25:29;2.90;;;2.20;;
72275;SDS011;61204;49.980;8.358;2022-10-16T04:27:56;4.05;;;1.73;;
72275;SDS011;61204;49.980;8.358;2022-10-16T04:30:22;4.78;;;1.30;;
72275;SDS011;61204;49.980;8.358;2022-10-16T04:32:49;4.00;;;1.50;;
72275;SDS011;61204;49.980;8.358;2022-10-16T04:35:19;2.50;;;1.08;;
72275;SDS011;61204;49.980;8.358;2022-10-16T04:37:46;2.67;;;1.40;;
72275;SDS011;61204;49.980;8.358;2022-10-16T04:40:13;2.03;;;0.98;;
72275;SDS011;61204;49.980;8.358;2022-10-16T04:42:39;2.33;;;1.00;;
72275;SDS011;61204;49.980;8.358;2022-10-16T04:45:05;1.50;;;1.10;;
72275;SDS011;61204;49.980;8.358;2022-10-16T04:47:33;3.17;;;0.90;;
72275;SDS011;61204;49.980;8.358;2022-10-16T04:49:59;1.42;;;1.05;;
72275;SDS011;61204;49.980;8.358;2022-10-16T04:52:26;3.13;;;1.05;;
72275;SDS011;61204;49.980;8.358;2022-10-16T04:54:52;2.17;;;1.08;;
72275;SDS011;61204;49.980;8.358;2022-10-16T04:57:18;2.60;;;1.15;;
72275;SDS011;61204;49.980;8.358;2022-10-16T04:59:44;2.72;;;1.40;;
72275;SDS011;61204;49.980;8.358;2022-10-16T05:02:10;2.28;;;1.15;;
72275;SDS011;61204;49.980;8.358;2022-10-16T05:04:35;2.80;;;1.17;;
72275;SDS011;61204;49.980;8.358;2022-10-16T05:07:01;1.00;;;0.82;;
72275;SDS011;61204;49.980;8.358;2022-10-16T05:09:26;1.58;;;1.23;;
72275;SDS011;61204;49.980;8.358;2022-10-16T05:11:52;3.67;;;1.50;;
72275;SDS011;61204;49.980;8.358;2022-10-16T05:14:18;4.90;;;1.17;;
72275;SDS011;61204;49.980;8.358;2022-10-16T05:16:43;3.22;;;1.00;;
72275;SDS011;61204;49.980;8.358;2022-10-16T05:19:09;1.60;;;1.00;;
72275;SDS011;61204;49.980;8.358;2022-10-16T05:21:35;4.63;;;1.00;;
72275;SDS011;61204;49.980;8.358;2022-10-16T05:24:01;1.60;;;0.80;;
72275;SDS011;61204;49.980;8.358;2022-10-16T05:26:26;3.00;;;1.20;;
72275;SDS011;61204;49.980;8.358;2022-10-16T05:28:52;2.42;;;1.20;;
72275;SDS011;61204;49.980;8.358;2022-10-16T05:31:17;2.10;;;1.30;;
72275;SDS011;61204;49.980;8.358;2022-10-16T05:33:43;2.28;;;1.33;;
72275;SDS011;61204;49.980;8.358;2022-10-16T05:36:09;2.95;;;1.50;;
72275;SDS011;61204;49.980;8.358;2022-10-16T05:38:35;8.15;;;1.60;;
72275;SDS011;61204;49.980;8.358;2022-10-16T05:41:03;2.47;;;1.58;;
72275;SDS011;61204;49.980;8.358;2022-10-16T05:43:31;6.13;;;1.60;;
72275;SDS011;61204;49.980;8.358;2022-10-16T05:45:58;2.13;;;1.35;;
72275;SDS011;61204;49.980;8.358;2022-10-16T05:48:27;3.22;;;1.48;;
72275;SDS011;61204;49.980;8.358;2022-10-16T05:50:57;1.65;;;1.25;;
72275;SDS011;61204;49.980;8.358;2022-10-16T05:53:32;1.98;;;1.40;;
72275;SDS011;61204;49.980;8.358;2022-10-16T05:56:00;3.10;;;1.58;;
72275;SDS011;61204;49.980;8.358;2022-10-16T05:58:29;2.67;;;1.50;;
72275;SDS011;61204;49.980;8.358;2022-10-16T06:01:06;3.47;;;1.65;;
72275;SDS011;61204;49.980;8.358;2022-10-16T06:03:37;6.90;;;1.83;;
72275;SDS011;61204;49.980;8.358;2022-10-16T06:06:18;2.50;;;2.00;;
72275;SDS011;61204;49.980;8.358;2022-10-16T06:11:19;6.95;;;2.08;;
72275;SDS011;61204;49.980;8.358;2022-10-16T06:13:52;3.10;;;1.83;;
72275;SDS011;61204;49.980;8.358;2022-10-16T06:16:21;1.95;;;1.75;;
72275;SDS011;61204;49.980;8.358;2022-10-16T06:18:50;4.65;;;1.90;;
72275;SDS011;61204;49.980;8.358;2022-10-16T06:21:21;4.63;;;2.00;;
72275;SDS011;61204;49.980;8.358;2022-10-16T06:23:51;3.17;;;1.85;;
72275;SDS011;61204;49.980;8.358;2022-10-16T06:26:18;2.97;;;1.70;;
72275;SDS011;61204;49.980;8.358;2022-10-16T06:28:47;8.45;;;2.38;;
72275;SDS011;61204;49.980;8.358;2022-10-16T06:31:14;5.30;;;1.80;;
72275;SDS011;61204;49.980;8.358;2022-10-16T06:33:42;3.45;;;2.13;;
72275;SDS011;61204;49.980;8.358;2022-10-16T06:36:09;5.03;;;1.92;;
72275;SDS011;61204;49.980;8.358;2022-10-16T06:38:39;3.35;;;1.30;;
72275;SDS011;61204;49.980;8.358;2022-10-16T06:41:06;2.47;;;1.60;;
72275;SDS011;61204;49.980;8.358;2022-10-16T06:43:38;3.72;;;1.42;;
72275;SDS011;61204;49.980;8.358;2022-10-16T06:46:05;2.63;;;1.90;;
72275;SDS011;61204;49.980;8.358;2022-10-16T06:48:35;5.65;;;1.42;;
72275;SDS011;61204;49.980;8.358;2022-10-16T06:51:03;2.25;;;1.45;;
72275;SDS011;61204;49.980;8.358;2022-10-16T06:53:38;3.60;;;1.58;;
72275;SDS011;61204;49.980;8.358;2022-10-16T06:56:20;3.65;;;2.00;;
72275;SDS011;61204;49.980;8.358;2022-10-16T06:58:51;3.65;;;1.83;;
72275;SDS011;61204;49.980;8.358;2022-10-16T07:01:19;3.67;;;1.90;;
72275;SDS011;61204;49.980;8.358;2022-10-16T07:03:48;1.90;;;1.65;;
72275;SDS011;61204;49.980;8.358;2022-10-16T07:06:16;2.95;;;1.85;;
72275;SDS011;61204;49.980;8.358;2022-10-16T07:08:46;3.45;;;1.80;;
72275;SDS011;61204;49.980;8.358;2022-10-16T07:11:14;3.70;;;2.10;;
72275;SDS011;61204;49.980;8.358;2022-10-16T07:13:44;3.03;;;2.30;;
72275;SDS011;61204;49.980;8.358;2022-10-16T07:16:16;4.03;;;2.63;;
72275;SDS011;61204;49.980;8.358;2022-10-16T07:18:45;6.20;;;2.88;;
72275;SDS011;61204;49.980;8.358;2022-10-16T07:21:18;2.78;;;2.28;;
72275;SDS011;61204;49.980;8.358;2022-10-16T07:23:50;3.75;;;2.80;;
72275;SDS011;61204;49.980;8.358;2022-10-16T07:26:24;3.10;;;2.55;;
72275;SDS011;61204;49.980;8.358;2022-10-16T07:28:53;4.80;;;2.90;;
72275;SDS011;61204;49.980;8.358;2022-10-16T07:31:19;4.35;;;2.33;;
72275;SDS011;61204;49.980;8.358;2022-10-16T07:33:46;4.28;;;2.60;;
72275;SDS011;61204;49.980;8.358;2022-10-16T07:36:14;4.60;;;3.47;;
72275;SDS011;61204;49.980;8.358;2022-10-16T07:38:42;5.15;;;3.65;;
72275;SDS011;61204;49.980;8.358;2022-10-16T07:41:10;5.47;;;4.07;;
72275;SDS011;61204;49.980;8.358;2022-10-16T07:43:40;6.07;;;4.47;;
72275;SDS011;61204;49.980;8.358;2022-10-16T07:46:12;5.32;;;3.35;;
72275;SDS011;61204;49.980;8.358;2022-10-16T07:48:39;4.13;;;2.53;;
72275;SDS011;61204;49.980;8.358;2022-10-16T07:51:06;2.97;;;2.60;;
72275;SDS011;61204;49.980;8.358;2022-10-16T07:53:32;3.40;;;2.40;;
72275;SDS011;61204;49.980;8.358;2022-10-16T07:55:59;4.03;;;3.00;;
72275;SDS011;61204;49.980;8.358;2022-10-16T07:58:29;3.55;;;2.40;;
72275;SDS011;61204;49.980;8.358;2022-10-16T08:00:56;5.82;;;2.88;;
72275;SDS011;61204;49.980;8.358;2022-10-16T08:03:24;3.53;;;2.50;;
72275;SDS011;61204;49.980;8.358;2022-10-16T08:05:50;4.68;;;3.08;;
72275;SDS011;61204;49.980;8.358;2022-10-16T08:08:17;5.53;;;2.80;;
72275;SDS011;61204;49.980;8.358;2022-10-16T08:10:44;3.88;;;2.45;;
72275;SDS011;61204;49.980;8.358;2022-10-16T08:13:10;3.35;;;2.75;;
72275;SDS011;61204;49.980;8.358;2022-10-16T08:15:37;7.25;;;2.90;;
72275;SDS011;61204;49.980;8.358;2022-10-16T08:18:04;8.07;;;2.60;;
72275;SDS011;61204;49.980;8.358;2022-10-16T08:20:30;5.07;;;2.35;;
72275;SDS011;61204;49.980;8.358;2022-10-16T08:22:58;3.38;;;2.38;;
72275;SDS011;61204;49.980;8.358;2022-10-16T08:25:25;7.05;;;2.65;;
72275;SDS011;61204;49.980;8.358;2022-10-16T08:27:52;5.63;;;2.60;;
72275;SDS011;61204;49.980;8.358;2022-10-16T08:30:19;6.38;;;2.70;;
72275;SDS011;61204;49.980;8.358;2022-10-16T08:32:48;4.95;;;3.33;;
72275;SDS011;61204;49.980;8.358;2022-10-16T08:35:15;7.57;;;3.95;;
72275;SDS011;61204;49.980;8.358;2022-10-16T08:37:41;6.25;;;3.25;;
72275;SDS011;61204;49.980;8.358;2022-10-16T08:48:52;4.03;;;3.13;;
72275;SDS011;61204;49.980;8.358;2022-10-16T08:51:24;6.53;;;3.05;;
72275;SDS011;61204;49.980;8.358;2022-10-16T08:54:08;3.63;;;2.38;;
72275;SDS011;61204;49.980;8.358;2022-10-16T08:57:19;4.93;;;2.40;;
72275;SDS011;61204;49.980;8.358;2022-10-16T08:59:49;2.80;;;2.22;;
72275;SDS011;61204;49.980;8.358;2022-10-16T09:04:58;4.40;;;1.60;;
72275;SDS011;61204;49.980;8.358;2022-10-16T09:14:07;3.50;;;1.30;;
72275;SDS011;61204;49.980;8.358;2022-10-16T09:17:37;4.47;;;2.03;;
72275;SDS011;61204;49.980;8.358;2022-10-16T09:20:31;4.88;;;2.70;;
72275;SDS011;61204;49.980;8.358;2022-10-16T09:23:28;5.85;;;3.58;;
72275;SDS011;61204;49.980;8.358;2022-10-16T09:26:00;8.88;;;4.07;;
72275;SDS011;61204;49.980;8.358;2022-10-16T09:28:28;7.15;;;4.55;;
72275;SDS011;61204;49.980;8.358;2022-10-16T09:30:53;7.00;;;4.40;;
72275;SDS011;61204;49.980;8.358;2022-10-16T09:33:20;6.60;;;3.53;;
72275;SDS011;61204;49.980;8.358;2022-10-16T09:36:00;4.88;;;4.32;;
72275;SDS011;61204;49.980;8.358;2022-10-16T09:38:31;6.07;;;4.72;;
72275;SDS011;61204;49.980;8.358;2022-10-16T09:41:13;8.18;;;5.95;;
72275;SDS011;61204;49.980;8.358;2022-10-16T09:43:57;7.72;;;4.90;;
72275;SDS011;61204;49.980;8.358;2022-10-16T09:46:28;6.57;;;4.80;;
72275;SDS011;61204;49.980;8.358;2022-10-16T09:48:59;7.97;;;5.57;;
72275;SDS011;61204;49.980;8.358;2022-10-16T09:51:45;9.13;;;5.82;;
72275;SDS011;61204;49.980;8.358;2022-10-16T09:54:15;7.57;;;5.43;;
72275;SDS011;61204;49.980;8.358;2022-10-16T09:56:44;10.55;;;8.15;;
72275;SDS011;61204;49.980;8.358;2022-10-16T09:59:18;11.48;;;8.52;;
72275;SDS011;61204;49.980;8.358;2022-10-16T10:01:49;9.93;;;8.70;;
72275;SDS011;61204;49.980;8.358;2022-10-16T10:04:20;8.57;;;5.95;;
72275;SDS011;61204;49.980;8.358;2022-10-16T10:06:51;9.27;;;6.97;;
72275;SDS011;61204;49.980;8.358;2022-10-16T10:09:22;9.02;;;6.50;;
72275;SDS011;61204;49.980;8.358;2022-10-16T10:11:55;7.53;;;4.93;;
72275;SDS011;61204;49.980;8.358;2022-10-16T10:19:46;4.70;;;3.42;;
72275;SDS011;61204;49.980;8.358;2022-10-16T10:22:41;6.05;;;4.55;;
72275;SDS011;61204;49.980;8.358;2022-10-16T10:34:12;6.13;;;3.92;;
72275;SDS011;61204;49.980;8.358;2022-10-16T10:36:56;4.15;;;2.25;;
72275;SDS011;61204;49.980;8.358;2022-10-16T10:40:43;3.60;;;2.75;;
72275;SDS011;61204;49.980;8.358;2022-10-16T10:43:31;3.05;;;1.67;;
72275;SDS011;61204;49.980;8.358;2022-10-16T10:46:36;2.72;;;1.70;;
72275;SDS011;61204;49.980;8.358;2022-10-16T10:49:42;2.75;;;1.35;;
72275;SDS011;61204;49.980;8.358;2022-10-16T10:55:37;2.17;;;1.20;;
72275;SDS011;61204;49.980;8.358;2022-10-16T11:01:44;2.25;;;1.52;;
72275;SDS011;61204;49.980;8.358;2022-10-16T11:07:11;4.13;;;1.52;;
72275;SDS011;61204;49.980;8.358;2022-10-16T11:09:49;2.13;;;1.48;;
72275;SDS011;61204;49.980;8.358;2022-10-16T11:15:21;4.82;;;1.70;;
72275;SDS011;61204;49.980;8.358;2022-10-16T11:20:42;2.22;;;1.33;;
72275;SDS011;61204;49.980;8.358;2022-10-16T11:23:26;3.45;;;1.38;;
72275;SDS011;61204;49.980;8.358;2022-10-16T11:26:10;2.55;;;1.85;;
72275;SDS011;61204;49.980;8.358;2022-10-16T11:28:48;2.63;;;1.60;;
72275;SDS011;61204;49.980;8.358;2022-10-16T11:31:39;3.67;;;1.90;;
72275;SDS011;61204;49.980;8.358;2022-10-16T11:36:53;4.57;;;1.70;;
72275;SDS011;61204;49.980;8.358;2022-10-16T11:39:26;2.13;;;1.60;;
72275;SDS011;61204;49.980;8.358;2022-10-16T11:42:07;5.32;;;1.85;;
72275;SDS011;61204;49.980;8.358;2022-10-16T11:45:00;4.20;;;1.67;;
72275;SDS011;61204;49.980;8.358;2022-10-16T11:50:23;3.67;;;1.35;;
72275;SDS011;61204;49.980;8.358;2022-10-16T11:56:12;3.42;;;1.20;;
72275;SDS011;61204;49.980;8.358;2022-10-16T12:01:33;2.75;;;1.23;;
72275;SDS011;61204;49.980;8.358;2022-10-16T12:04:47;1.58;;;1.10;;
72275;SDS011;61204;49.980;8.358;2022-10-16T12:10:34;2.22;;;0.95;;
72275;SDS011;61204;49.980;8.358;2022-10-16T12:13:04;1.27;;;0.80;;
72275;SDS011;61204;49.980;8.358;2022-10-16T12:18:36;1.52;;;0.80;;
72275;SDS011;61204;49.980;8.358;2022-10-16T12:21:04;0.82;;;0.60;;
72275;SDS011;61204;49.980;8.358;2022-10-16T12:23:53;2.88;;;0.65;;
72275;SDS011;61204;49.980;8.358;2022-10-16T12:26:43;3.05;;;0.80;;
72275;SDS011;61204;49.980;8.358;2022-10-16T12:29:14;0.80;;;0.70;;
72275;SDS011;61204;49.980;8.358;2022-10-16T12:32:00;0.68;;;0.55;;
72275;SDS011;61204;49.980;8.358;2022-10-16T12:34:41;3.80;;;0.75;;
72275;SDS011;61204;49.980;8.358;2022-10-16T12:37:20;1.48;;;0.52;;
72275;SDS011;61204;49.980;8.358;2022-10-16T12:39:53;1.15;;;0.60;;
72275;SDS011;61204;49.980;8.358;2022-10-16T12:44:54;2.88;;;0.80;;
72275;SDS011;61204;49.980;8.358;2022-10-16T12:53:21;0.70;;;0.40;;
72275;SDS011;61204;49.980;8.358;2022-10-16T12:56:03;1.02;;;0.50;;
72275;SDS011;61204;49.980;8.358;2022-10-16T12:59:03;2.70;;;0.77;;
72275;SDS011;61204;49.980;8.358;2022-10-16T13:04:58;0.90;;;0.60;;
72275;SDS011;61204;49.980;8.358;2022-10-16T13:08:00;2.58;;;0.80;;
72275;SDS011;61204;49.980;8.358;2022-10-16T13:11:25;1.60;;;0.68;;
72275;SDS011;61204;49.980;8.358;2022-10-16T13:14:41;2.97;;;0.88;;
72275;SDS011;61204;49.980;8.358;2022-10-16T13:17:45;1.55;;;0.73;;
72275;SDS011;61204;49.980;8.358;2022-10-16T13:27:07;3.17;;;0.90;;
72275;SDS011;61204;49.980;8.358;2022-10-16T13:29:42;1.25;;;0.90;;
72275;SDS011;61204;49.980;8.358;2022-10-16T13:32:09;4.50;;;0.90;;
72275;SDS011;61204;49.980;8.358;2022-10-16T13:34:47;1.75;;;0.90;;
72275;SDS011;61204;49.980;8.358;2022-10-16T13:37:18;1.00;;;0.80;;
72275;SDS011;61204;49.980;8.358;2022-10-16T13:39:50;1.17;;;0.80;;
72275;SDS011;61204;49.980;8.358;2022-10-16T13:44:54;2.30;;;1.35;;
72275;SDS011;61204;49.980;8.358;2022-10-16T13:47:25;2.80;;;1.05;;
72275;SDS011;61204;49.980;8.358;2022-10-16T13:50:10;7.20;;;1.27;;
72275;SDS011;61204;49.980;8.358;2022-10-16T13:52:41;2.75;;;1.00;;
72275;SDS011;61204;49.980;8.358;2022-10-16T13:55:13;2.47;;;1.20;;
72275;SDS011;61204;49.980;8.358;2022-10-16T13:57:43;2.22;;;1.15;;
72275;SDS011;61204;49.980;8.358;2022-10-16T14:00:23;3.33;;;0.98;;
72275;SDS011;61204;49.980;8.358;2022-10-16T14:02:58;2.55;;;1.00;;
72275;SDS011;61204;49.980;8.358;2022-10-16T14:05:36;3.63;;;1.20;;
72275;SDS011;61204;49.980;8.358;2022-10-16T14:08:17;5.43;;;1.08;;
72275;SDS011;61204;49.980;8.358;2022-10-16T14:10:47;3.17;;;1.08;;
72275;SDS011;61204;49.980;8.358;2022-10-16T14:13:19;2.55;;;1.00;;
72275;SDS011;61204;49.980;8.358;2022-10-16T14:16:02;1.80;;;1.20;;
72275;SDS011;61204;49.980;8.358;2022-10-16T14:18:35;5.60;;;1.67;;
72275;SDS011;61204;49.980;8.358;2022-10-16T14:21:11;1.20;;;1.10;;
72275;SDS011;61204;49.980;8.358;2022-10-16T14:23:41;2.17;;;1.13;;
72275;SDS011;61204;49.980;8.358;2022-10-16T14:28:33;1.30;;;0.90;;
72275;SDS011;61204;49.980;8.358;2022-10-16T14:31:02;4.07;;;1.10;;
72275;SDS011;61204;49.980;8.358;2022-10-16T14:33:49;4.70;;;1.30;;
72275;SDS011;61204;49.980;8.358;2022-10-16T14:36:15;1.40;;;1.20;;
72275;SDS011;61204;49.980;8.358;2022-10-16T14:38:58;1.67;;;1.10;;
72275;SDS011;61204;49.980;8.358;2022-10-16T14:44:02;3.20;;;1.23;;
72275;SDS011;61204;49.980;8.358;2022-10-16T14:46:32;2.53;;;1.48;;
72275;SDS011;61204;49.980;8.358;2022-10-16T14:49:04;4.80;;;1.40;;
72275;SDS011;61204;49.980;8.358;2022-10-16T14:51:38;1.53;;;1.20;;
72275;SDS011;61204;49.980;8.358;2022-10-16T14:54:07;3.78;;;1.42;;
72275;SDS011;61204;49.980;8.358;2022-10-16T14:56:53;2.10;;;1.20;;
72275;SDS011;61204;49.980;8.358;2022-10-16T14:59:25;4.00;;;1.40;;
72275;SDS011;61204;49.980;8.358;2022-10-16T15:02:20;2.97;;;1.45;;
72275;SDS011;61204;49.980;8.358;2022-10-16T15:04:56;2.60;;;1.08;;
72275;SDS011;61204;49.980;8.358;2022-10-16T15:07:23;3.92;;;1.58;;
72275;SDS011;61204;49.980;8.358;2022-10-16T15:09:49;1.90;;;1.50;;
72275;SDS011;61204;49.980;8.358;2022-10-16T15:12:16;1.45;;;1.10;;
72275;SDS011;61204;49.980;8.358;2022-10-16T15:14:43;4.50;;;1.42;;
72275;SDS011;61204;49.980;8.358;2022-10-16T15:17:11;2.80;;;1.30;;
72275;SDS011;61204;49.980;8.358;2022-10-16T15:19:37;6.75;;;1.50;;
72275;SDS011;61204;49.980;8.358;2022-10-16T15:22:03;6.47;;;1.65;;
72275;SDS011;61204;49.980;8.358;2022-10-16T15:24:29;2.72;;;1.50;;
72275;SDS011;61204;49.980;8.358;2022-10-16T15:26:54;3.63;;;1.80;;
72275;SDS011;61204;49.980;8.358;2022-10-16T15:29:20;4.97;;;2.20;;
72275;SDS011;61204;49.980;8.358;2022-10-16T15:31:46;4.07;;;1.95;;
72275;SDS011;61204;49.980;8.358;2022-10-16T15:34:12;3.47;;;2.10;;
72275;SDS011;61204;49.980;8.358;2022-10-16T15:36:39;3.22;;;2.22;;
72275;SDS011;61204;49.980;8.358;2022-10-16T15:39:08;3.55;;;1.70;;
72275;SDS011;61204;49.980;8.358;2022-10-16T15:41:41;3.10;;;1.95;;
72275;SDS011;61204;49.980;8.358;2022-10-16T15:44:09;3.70;;;2.15;;
72275;SDS011;61204;49.980;8.358;2022-10-16T15:46:35;2.85;;;1.92;;
72275;SDS011;61204;49.980;8.358;2022-10-16T15:49:02;3.90;;;2.08;;
72275;SDS011;61204;49.980;8.358;2022-10-16T15:51:29;5.00;;;1.98;;
72275;SDS011;61204;49.980;8.358;2022-10-16T15:53:57;5.70;;;2.20;;
72275;SDS011;61204;49.980;8.358;2022-10-16T15:56:26;4.78;;;2.67;;
72275;SDS011;61204;49.980;8.358;2022-10-16T15:58:53;4.55;;;2.30;;
72275;SDS011;61204;49.980;8.358;2022-10-16T16:01:22;4.82;;;1.90;;
72275;SDS011;61204;49.980;8.358;2022-10-16T16:03:47;3.40;;;2.15;;
72275;SDS011;61204;49.980;8.358;2022-10-16T16:06:19;4.00;;;1.95;;
72275;SDS011;61204;49.980;8.358;2022-10-16T16:08:45;3.97;;;2.10;;
72275;SDS011;61204;49.980;8.358;2022-10-16T16:11:12;5.05;;;2.30;;
72275;SDS011;61204;49.980;8.358;2022-10-16T16:13:40;3.08;;;2.10;;
72275;SDS011;61204;49.980;8.358;2022-10-16T16:16:11;3.97;;;2.70;;
72275;SDS011;61204;49.980;8.358;2022-10-16T16:18:41;4.65;;;2.38;;
72275;SDS011;61204;49.980;8.358;2022-10-16T16:21:07;4.90;;;2.22;;
72275;SDS011;61204;49.980;8.358;2022-10-16T16:23:36;5.10;;;2.10;;
72275;SDS011;61204;49.980;8.358;2022-10-16T16:26:03;14.02;;;3.10;;
72275;SDS011;61204;49.980;8.358;2022-10-16T16:29:01;3.13;;;2.28;;
72275;SDS011;61204;49.980;8.358;2022-10-16T16:31:29;3.67;;;2.58;;
72275;SDS011;61204;49.980;8.358;2022-10-16T16:33:57;4.22;;;2.17;;
72275;SDS011;61204;49.980;8.358;2022-10-16T16:36:24;6.10;;;2.90;;
72275;SDS011;61204;49.980;8.358;2022-10-16T16:38:50;3.65;;;2.58;;
72275;SDS011;61204;49.980;8.358;2022-10-16T16:41:20;4.60;;;2.63;;
72275;SDS011;61204;49.980;8.358;2022-10-16T16:43:51;5.82;;;3.20;;
72275;SDS011;61204;49.980;8.358;2022-10-16T16:46:18;4.40;;;3.40;;
72275;SDS011;61204;49.980;8.358;2022-10-16T16:48:45;7.88;;;4.05;;
72275;SDS011;61204;49.980;8.358;2022-10-16T16:51:12;6.75;;;4.18;;
72275;SDS011;61204;49.980;8.358;2022-10-16T16:53:43;5.32;;;2.72;;
72275;SDS011;61204;49.980;8.358;2022-10-16T16:56:13;6.28;;;2.70;;
72275;SDS011;61204;49.980;8.358;2022-10-16T16:58:40;6.80;;;3.25;;
72275;SDS011;61204;49.980;8.358;2022-10-16T17:01:06;4.72;;;3.15;;
72275;SDS011;61204;49.980;8.358;2022-10-16T17:03:34;4.88;;;2.90;;
72275;SDS011;61204;49.980;8.358;2022-10-16T17:06:01;7.53;;;3.42;;
72275;SDS011;61204;49.980;8.358;2022-10-16T17:08:32;5.50;;;3.30;;
72275;SDS011;61204;49.980;8.358;2022-10-16T17:11:03;5.22;;;3.25;;
72275;SDS011;61204;49.980;8.358;2022-10-16T17:13:31;5.90;;;2.97;;
72275;SDS011;61204;49.980;8.358;2022-10-16T17:16:02;5.75;;;3.03;;
72275;SDS011;61204;49.980;8.358;2022-10-16T17:18:31;4.43;;;3.35;;
72275;SDS011;61204;49.980;8.358;2022-10-16T17:20:59;3.83;;;3.13;;
72275;SDS011;61204;49.980;8.358;2022-10-16T17:23:28;7.38;;;3.30;;
72275;SDS011;61204;49.980;8.358;2022-10-16T17:25:54;6.45;;;2.97;;
72275;SDS011;61204;49.980;8.358;2022-10-16T17:28:20;5.85;;;3.35;;